sensor_id;sensor_type;location;lat;lon;timestamp;temperature;humidity
23323;DHT22;11833;52.554;13.554;2023-01-23T01:02:41;2.20;99.90
23323;DHT22;11833;52.554;13.554;2023-01-23T01:05:07;2.20;99.90
23323;DHT22;11833;52.554;13.554;2023-01-23T01:07:33;2.20;99.90
23323;DHT22;11833;52.554;13.554;2023-01-23T01:09:59;2.30;99.90
23323;DHT22;11833;52.554;13.554;2023-01-23T01:12:24;2.30;99.90
23323;DHT22;11833;52.554;13.554;2023-01-23T01:14:50;2.20;99.90
23323;DHT22;11833;52.554;13.554;2023-01-23T01:17:16;2.20;99.90
23323;DHT22;11833;52.554;13.554;2023-01-23T01:19:42;2.10;99.90
23323;DHT22;11833;52.554;13.554;2023-01-23T01:22:07;2.10;99.90
23323;DHT22;11833;52.554;13.554;2023-01-23T01:24:33;2.10;99.90
23323;DHT22;11833;52.554;13.554;2023-01-23T01:26:59;2.10;99.90
23323;DHT22;11833;52.554;13.554;2023-01-23T01:29:24;2.10;99.90
23323;DHT22;11833;52.554;13.554;2023-01-23T01:31:50;2.00;99.90
23323;DHT22;11833;52.554;13.554;2023-01-23T01:34:16;2.10;99.90
23323;DHT22;11833;52.554;13.554;2023-01-23T01:36:42;2.10;99.90
23323;DHT22;11833;52.554;13.554;2023-01-23T01:39:07;2.00;99.90
23323;DHT22;11833;52.554;13.554;2023-01-23T01:41:33;2.00;99.90
23323;DHT22;11833;52.554;13.554;2023-01-23T01:44:00;2.20;99.90
23323;DHT22;11833;52.554;13.554;2023-01-23T01:46:27;2.20;99.90
23323;DHT22;11833;52.554;13.554;2023-01-23T01:49:32;2.30;99.90
23323;DHT22;11833;52.554;13.554;2023-01-23T01:52:05;2.30;99.90
23323;DHT22;11833;52.554;13.554;2023-01-23T01:55:07;2.20;99.90
23323;DHT22;11833;52.554;13.554;2023-01-23T01:57:35;2.20;99.90
23323;DHT22;11833;52.554;13.554;2023-01-23T02:00:13;2.10;99.90
23323;DHT22;11833;52.554;13.554;2023-01-23T02:05:33;2.30;99.90
23323;DHT22;11833;52.554;13.554;2023-01-23T02:11:08;2.20;99.90
23323;DHT22;11833;52.554;13.554;2023-01-23T02:13:36;2.20;99.90
23323;DHT22;11833;52.554;13.554;2023-01-23T02:16:05;2.20;99.90
23323;DHT22;11833;52.554;13.554;2023-01-23T02:18:34;2.10;99.90
23323;DHT22;11833;52.554;13.554;2023-01-23T02:21:05;2.30;99.90
23323;DHT22;11833;52.554;13.554;2023-01-23T02:26:18;2.10;99.90
23323;DHT22;11833;52.554;13.554;2023-01-23T02:28:49;2.20;99.90
23323;DHT22;11833;52.554;13.554;2023-01-23T02:31:17;2.10;99.90
23323;DHT22;11833;52.554;13.554;2023-01-23T02:33:55;2.10;99.90
23323;DHT22;11833;52.554;13.554;2023-01-23T02:36:24;2.10;99.90
23323;DHT22;11833;52.554;13.554;2023-01-23T02:39:02;2.20;99.90
23323;DHT22;11833;52.554;13.554;2023-01-23T02:41:42;2.20;99.90
23323;DHT22;11833;52.554;13.554;2023-01-23T02:44:22;2.10;99.90
23323;DHT22;11833;52.554;13.554;2023-01-23T02:46:56;2.10;99.90
23323;DHT22;11833;52.554;13.554;2023-01-23T02:49:25;2.10;99.90
23323;DHT22;11833;52.554;13.554;2023-01-23T02:51:52;2.10;99.90
23323;DHT22;11833;52.554;13.554;2023-01-23T02:54:20;2.10;99.90
23323;DHT22;11833;52.554;13.554;2023-01-23T02:56:47;2.10;99.90
23323;DHT22;11833;52.554;13.554;2023-01-23T02:59:13;2.20;99.90
23323;DHT22;11833;52.554;13.554;2023-01-23T03:01:57;2.20;99.90
23323;DHT22;11833;52.554;13.554;2023-01-23T03:04:24;2.10;99.90
23323;DHT22;11833;52.554;13.554;2023-01-23T03:06:49;2.20;99.90
23323;DHT22;11833;52.554;13.554;2023-01-23T03:09:16;2.10;99.90
23323;DHT22;11833;52.554;13.554;2023-01-23T03:11:44;2.10;99.90
23323;DHT22;11833;52.554;13.554;2023-01-23T03:14:14;2.20;99.90
23323;DHT22;11833;52.554;13.554;2023-01-23T03:16:45;2.20;99.90
23323;DHT22;11833;52.554;13.554;2023-01-23T03:19:20;2.30;99.90
23323;DHT22;11833;52.554;13.554;2023-01-23T03:21:48;2.10;99.90
23323;DHT22;11833;52.554;13.554;2023-01-23T03:24:14;2.00;99.90
23323;DHT22;11833;52.554;13.554;2023-01-23T03:26:45;1.90;99.90
23323;DHT22;11833;52.554;13.554;2023-01-23T03:29:17;1.90;99.90
23323;DHT22;11833;52.554;13.554;2023-01-23T03:32:06;1.90;99.90
23323;DHT22;11833;52.554;13.554;2023-01-23T03:34:33;1.90;99.90
23323;DHT22;11833;52.554;13.554;2023-01-23T03:36:59;2.10;99.90
23323;DHT22;11833;52.554;13.554;2023-01-23T03:39:26;2.10;99.90
23323;DHT22;11833;52.554;13.554;2023-01-23T03:42:10;2.20;99.90
23323;DHT22;11833;52.554;13.554;2023-01-23T03:44:36;2.20;99.90
23323;DHT22;11833;52.554;13.554;2023-01-23T03:47:02;2.10;99.90
23323;DHT22;11833;52.554;13.554;2023-01-23T03:49:28;2.10;99.90
23323;DHT22;11833;52.554;13.554;2023-01-23T03:51:54;2.20;99.90
23323;DHT22;11833;52.554;13.554;2023-01-23T03:54:20;2.10;99.90
23323;DHT22;11833;52.554;13.554;2023-01-23T03:56:46;2.00;99.90
23323;DHT22;11833;52.554;13.554;2023-01-23T03:59:12;2.10;99.90
23323;DHT22;11833;52.554;13.554;2023-01-23T04:01:37;2.20;99.90
23323;DHT22;11833;52.554;13.554;2023-01-23T04:04:04;2.20;99.90
23323;DHT22;11833;52.554;13.554;2023-01-23T04:06:30;2.00;99.90
23323;DHT22;11833;52.554;13.554;2023-01-23T04:08:55;2.10;99.90
23323;DHT22;11833;52.554;13.554;2023-01-23T04:11:23;2.20;99.90
23323;DHT22;11833;52.554;13.554;2023-01-23T04:13:49;2.20;99.90
23323;DHT22;11833;52.554;13.554;2023-01-23T04:16:15;2.10;99.90
23323;DHT22;11833;52.554;13.554;2023-01-23T04:18:41;2.10;99.90
23323;DHT22;11833;52.554;13.554;2023-01-23T04:21:07;2.10;99.90
23323;DHT22;11833;52.554;13.554;2023-01-23T04:23:33;2.00;99.90
23323;DHT22;11833;52.554;13.554;2023-01-23T04:25:59;2.00;99.90
23323;DHT22;11833;52.554;13.554;2023-01-23T04:28:25;2.00;99.90
23323;DHT22;11833;52.554;13.554;2023-01-23T04:30:51;2.00;99.90
23323;DHT22;11833;52.554;13.554;2023-01-23T04:33:18;2.00;99.90
23323;DHT22;11833;52.554;13.554;2023-01-23T04:35:54;2.00;99.90
23323;DHT22;11833;52.554;13.554;2023-01-23T04:38:23;2.00;99.90
23323;DHT22;11833;52.554;13.554;2023-01-23T04:40:50;2.10;99.90
23323;DHT22;11833;52.554;13.554;2023-01-23T04:43:16;2.10;99.90
23323;DHT22;11833;52.554;13.554;2023-01-23T04:45:42;2.20;99.90
23323;DHT22;11833;52.554;13.554;2023-01-23T04:48:09;2.10;99.90
23323;DHT22;11833;52.554;13.554;2023-01-23T04:50:36;2.20;99.90
23323;DHT22;11833;52.554;13.554;2023-01-23T04:53:02;2.30;99.90
23323;DHT22;11833;52.554;13.554;2023-01-23T04:55:28;2.10;99.90
23323;DHT22;11833;52.554;13.554;2023-01-23T04:57:54;2.00;99.90
23323;DHT22;11833;52.554;13.554;2023-01-23T05:00:20;2.10;99.90
23323;DHT22;11833;52.554;13.554;2023-01-23T05:02:47;2.00;99.90
23323;DHT22;11833;52.554;13.554;2023-01-23T05:05:14;2.10;99.90
23323;DHT22;11833;52.554;13.554;2023-01-23T05:07:42;2.10;99.90
23323;DHT22;11833;52.554;13.554;2023-01-23T05:10:09;2.10;99.90
23323;DHT22;11833;52.554;13.554;2023-01-23T05:12:35;2.00;99.90
23323;DHT22;11833;52.554;13.554;2023-01-23T05:15:01;2.00;99.90
23323;DHT22;11833;52.554;13.554;2023-01-23T05:17:27;1.90;99.90
23323;DHT22;11833;52.554;13.554;2023-01-23T05:19:52;2.10;99.90
23323;DHT22;11833;52.554;13.554;2023-01-23T05:22:18;2.00;99.90
23323;DHT22;11833;52.554;13.554;2023-01-23T05:24:44;2.10;99.90
23323;DHT22;11833;52.554;13.554;2023-01-23T05:27:11;2.00;99.90
23323;DHT22;11833;52.554;13.554;2023-01-23T05:29:37;2.00;99.90
23323;DHT22;11833;52.554;13.554;2023-01-23T05:32:03;1.90;99.90
23323;DHT22;11833;52.554;13.554;2023-01-23T05:34:29;2.00;99.90
23323;DHT22;11833;52.554;13.554;2023-01-23T05:36:54;1.90;99.90
23323;DHT22;11833;52.554;13.554;2023-01-23T05:39:20;1.90;99.90
23323;DHT22;11833;52.554;13.554;2023-01-23T05:41:46;1.90;99.90
23323;DHT22;11833;52.554;13.554;2023-01-23T05:44:12;1.90;99.90
23323;DHT22;11833;52.554;13.554;2023-01-23T05:46:38;1.90;99.90
23323;DHT22;11833;52.554;13.554;2023-01-23T05:49:04;2.00;99.90
23323;DHT22;11833;52.554;13.554;2023-01-23T05:51:29;2.10;99.90
23323;DHT22;11833;52.554;13.554;2023-01-23T05:53:59;2.00;99.90
23323;DHT22;11833;52.554;13.554;2023-01-23T05:56:26;1.90;99.90
23323;DHT22;11833;52.554;13.554;2023-01-23T05:58:53;1.90;99.90
23323;DHT22;11833;52.554;13.554;2023-01-23T06:01:19;1.80;99.90
23323;DHT22;11833;52.554;13.554;2023-01-23T06:03:46;1.80;99.90
23323;DHT22;11833;52.554;13.554;2023-01-23T06:06:12;1.90;99.90
23323;DHT22;11833;52.554;13.554;2023-01-23T06:08:38;1.90;99.90
23323;DHT22;11833;52.554;13.554;2023-01-23T06:11:04;1.90;99.90
23323;DHT22;11833;52.554;13.554;2023-01-23T06:13:30;1.90;99.90
23323;DHT22;11833;52.554;13.554;2023-01-23T06:15:56;1.90;99.90
23323;DHT22;11833;52.554;13.554;2023-01-23T06:18:22;1.90;99.90
23323;DHT22;11833;52.554;13.554;2023-01-23T06:20:48;1.90;99.90
23323;DHT22;11833;52.554;13.554;2023-01-23T06:23:14;1.90;99.90
23323;DHT22;11833;52.554;13.554;2023-01-23T06:25:40;1.90;99.90
23323;DHT22;11833;52.554;13.554;2023-01-23T06:28:06;1.90;99.90
23323;DHT22;11833;52.554;13.554;2023-01-23T06:30:32;1.90;99.90
23323;DHT22;11833;52.554;13.554;2023-01-23T06:32:58;1.90;99.90
23323;DHT22;11833;52.554;13.554;2023-01-23T06:35:24;1.90;99.90
23323;DHT22;11833;52.554;13.554;2023-01-23T06:37:50;1.90;99.90
23323;DHT22;11833;52.554;13.554;2023-01-23T06:40:16;2.10;99.90
23323;DHT22;11833;52.554;13.554;2023-01-23T06:42:42;2.00;99.90
23323;DHT22;11833;52.554;13.554;2023-01-23T06:45:09;1.90;99.90
23323;DHT22;11833;52.554;13.554;2023-01-23T06:47:35;1.90;99.90
23323;DHT22;11833;52.554;13.554;2023-01-23T06:50:01;2.10;99.90
23323;DHT22;11833;52.554;13.554;2023-01-23T06:52:28;1.90;99.90
23323;DHT22;11833;52.554;13.554;2023-01-23T06:54:55;1.90;99.90
23323;DHT22;11833;52.554;13.554;2023-01-23T06:57:20;1.80;99.90
23323;DHT22;11833;52.554;13.554;2023-01-23T06:59:46;1.90;99.90
23323;DHT22;11833;52.554;13.554;2023-01-23T07:02:12;1.90;99.90
23323;DHT22;11833;52.554;13.554;2023-01-23T07:04:38;1.90;99.90
23323;DHT22;11833;52.554;13.554;2023-01-23T07:07:04;2.00;99.90
23323;DHT22;11833;52.554;13.554;2023-01-23T07:09:30;1.90;99.90
23323;DHT22;11833;52.554;13.554;2023-01-23T07:11:56;1.90;99.90
23323;DHT22;11833;52.554;13.554;2023-01-23T07:14:22;1.90;99.90
23323;DHT22;11833;52.554;13.554;2023-01-23T07:16:47;1.90;99.90
23323;DHT22;11833;52.554;13.554;2023-01-23T07:19:13;1.80;99.90
23323;DHT22;11833;52.554;13.554;2023-01-23T07:21:39;1.90;99.90
23323;DHT22;11833;52.554;13.554;2023-01-23T07:24:05;1.90;99.90
23323;DHT22;11833;52.554;13.554;2023-01-23T07:26:31;2.00;99.90
23323;DHT22;11833;52.554;13.554;2023-01-23T07:28:57;2.00;99.90
23323;DHT22;11833;52.554;13.554;2023-01-23T07:31:24;2.00;99.90
23323;DHT22;11833;52.554;13.554;2023-01-23T07:33:49;2.00;99.90
23323;DHT22;11833;52.554;13.554;2023-01-23T07:36:15;2.00;99.90
23323;DHT22;11833;52.554;13.554;2023-01-23T07:38:42;2.00;99.90
23323;DHT22;11833;52.554;13.554;2023-01-23T07:41:08;2.00;99.90
23323;DHT22;11833;52.554;13.554;2023-01-23T07:43:34;1.90;99.90
23323;DHT22;11833;52.554;13.554;2023-01-23T07:46:00;1.90;99.90
23323;DHT22;11833;52.554;13.554;2023-01-23T07:48:27;2.10;99.90
23323;DHT22;11833;52.554;13.554;2023-01-23T07:50:54;2.20;99.90
23323;DHT22;11833;52.554;13.554;2023-01-23T07:53:20;2.20;99.90
23323;DHT22;11833;52.554;13.554;2023-01-23T07:55:45;2.20;99.90
23323;DHT22;11833;52.554;13.554;2023-01-23T07:58:11;2.10;99.90
23323;DHT22;11833;52.554;13.554;2023-01-23T08:00:37;2.10;99.90
23323;DHT22;11833;52.554;13.554;2023-01-23T08:03:03;2.00;99.90
23323;DHT22;11833;52.554;13.554;2023-01-23T08:05:29;2.10;99.90
23323;DHT22;11833;52.554;13.554;2023-01-23T08:07:54;2.20;99.90
23323;DHT22;11833;52.554;13.554;2023-01-23T08:10:20;2.20;99.90
23323;DHT22;11833;52.554;13.554;2023-01-23T08:12:46;2.20;99.90
23323;DHT22;11833;52.554;13.554;2023-01-23T08:15:12;2.30;99.90
23323;DHT22;11833;52.554;13.554;2023-01-23T08:17:37;2.30;99.90
23323;DHT22;11833;52.554;13.554;2023-01-23T08:20:03;2.30;99.90
23323;DHT22;11833;52.554;13.554;2023-01-23T08:22:30;2.20;99.90
23323;DHT22;11833;52.554;13.554;2023-01-23T08:24:55;2.20;99.90
23323;DHT22;11833;52.554;13.554;2023-01-23T08:27:21;2.40;99.90
23323;DHT22;11833;52.554;13.554;2023-01-23T08:29:47;2.30;99.90
23323;DHT22;11833;52.554;13.554;2023-01-23T08:32:12;2.30;99.90
23323;DHT22;11833;52.554;13.554;2023-01-23T08:34:38;2.20;99.90
23323;DHT22;11833;52.554;13.554;2023-01-23T08:37:04;2.30;99.90
23323;DHT22;11833;52.554;13.554;2023-01-23T08:39:29;2.30;99.90
23323;DHT22;11833;52.554;13.554;2023-01-23T08:41:55;2.30;99.90
23323;DHT22;11833;52.554;13.554;2023-01-23T08:44:22;2.20;99.90
23323;DHT22;11833;52.554;13.554;2023-01-23T08:46:48;2.30;99.90
23323;DHT22;11833;52.554;13.554;2023-01-23T08:49:13;2.30;99.90
23323;DHT22;11833;52.554;13.554;2023-01-23T08:51:39;2.30;99.90
23323;DHT22;11833;52.554;13.554;2023-01-23T08:54:05;2.20;99.90
23323;DHT22;11833;52.554;13.554;2023-01-23T08:56:31;2.30;99.90
23323;DHT22;11833;52.554;13.554;2023-01-23T08:58:56;2.30;99.90
23323;DHT22;11833;52.554;13.554;2023-01-23T09:01:24;2.30;99.90
23323;DHT22;11833;52.554;13.554;2023-01-23T09:03:51;2.20;99.90
23323;DHT22;11833;52.554;13.554;2023-01-23T09:06:19;2.30;99.90
23323;DHT22;11833;52.554;13.554;2023-01-23T09:08:46;2.30;99.90
23323;DHT22;11833;52.554;13.554;2023-01-23T09:11:12;2.40;99.90
23323;DHT22;11833;52.554;13.554;2023-01-23T09:13:38;2.30;99.90
23323;DHT22;11833;52.554;13.554;2023-01-23T09:16:06;2.20;99.90
23323;DHT22;11833;52.554;13.554;2023-01-23T09:18:35;2.10;99.90
23323;DHT22;11833;52.554;13.554;2023-01-23T09:21:13;2.10;99.90
23323;DHT22;11833;52.554;13.554;2023-01-23T09:23:40;2.10;99.90
23323;DHT22;11833;52.554;13.554;2023-01-23T09:26:10;2.20;99.90
23323;DHT22;11833;52.554;13.554;2023-01-23T09:28:39;2.20;99.90
23323;DHT22;11833;52.554;13.554;2023-01-23T09:31:11;2.20;99.90
23323;DHT22;11833;52.554;13.554;2023-01-23T09:33:38;2.20;99.90
23323;DHT22;11833;52.554;13.554;2023-01-23T09:36:05;2.50;99.90
23323;DHT22;11833;52.554;13.554;2023-01-23T09:38:31;2.40;99.90
23323;DHT22;11833;52.554;13.554;2023-01-23T09:40:59;2.30;99.90
23323;DHT22;11833;52.554;13.554;2023-01-23T09:46:11;2.30;99.90
23323;DHT22;11833;52.554;13.554;2023-01-23T09:48:47;2.40;99.90
23323;DHT22;11833;52.554;13.554;2023-01-23T09:51:23;2.40;99.90
23323;DHT22;11833;52.554;13.554;2023-01-23T09:53:53;2.40;99.90
23323;DHT22;11833;52.554;13.554;2023-01-23T09:56:31;2.40;99.90
23323;DHT22;11833;52.554;13.554;2023-01-23T10:01:56;2.50;99.90
23323;DHT22;11833;52.554;13.554;2023-01-23T10:04:21;2.50;99.90
23323;DHT22;11833;52.554;13.554;2023-01-23T10:10:09;2.40;99.90
23323;DHT22;11833;52.554;13.554;2023-01-23T10:15:57;2.50;99.90
23323;DHT22;11833;52.554;13.554;2023-01-23T10:21:58;2.60;99.90
23323;DHT22;11833;52.554;13.554;2023-01-23T10:24:52;2.60;99.90
23323;DHT22;11833;52.554;13.554;2023-01-23T10:27:34;2.60;99.90
23323;DHT22;11833;52.554;13.554;2023-01-23T10:30:30;2.60;99.90
23323;DHT22;11833;52.554;13.554;2023-01-23T10:33:00;2.50;99.90
23323;DHT22;11833;52.554;13.554;2023-01-23T10:36:50;2.60;99.90
23323;DHT22;11833;52.554;13.554;2023-01-23T10:38:52;2.70;99.90
23323;DHT22;11833;52.554;13.554;2023-01-23T10:41:22;2.60;99.90
23323;DHT22;11833;52.554;13.554;2023-01-23T10:43:53;2.60;99.90
23323;DHT22;11833;52.554;13.554;2023-01-23T10:46:33;2.60;99.90
23323;DHT22;11833;52.554;13.554;2023-01-23T10:49:00;2.90;99.90
23323;DHT22;11833;52.554;13.554;2023-01-23T10:51:28;2.60;99.90
23323;DHT22;11833;52.554;13.554;2023-01-23T10:54:15;2.60;99.90
23323;DHT22;11833;52.554;13.554;2023-01-23T10:56:47;2.70;99.90
23323;DHT22;11833;52.554;13.554;2023-01-23T10:59:30;2.70;99.90
23323;DHT22;11833;52.554;13.554;2023-01-23T11:02:33;2.70;99.90
23323;DHT22;11833;52.554;13.554;2023-01-23T11:05:02;3.00;99.90
23323;DHT22;11833;52.554;13.554;2023-01-23T11:07:53;3.00;99.90
23323;DHT22;11833;52.554;13.554;2023-01-23T11:10:21;3.40;99.90
23323;DHT22;11833;52.554;13.554;2023-01-23T11:12:49;3.60;99.90
23323;DHT22;11833;52.554;13.554;2023-01-23T11:15:23;3.20;99.90
23323;DHT22;11833;52.554;13.554;2023-01-23T11:17:50;2.90;99.90
23323;DHT22;11833;52.554;13.554;2023-01-23T11:20:40;2.80;99.90
23323;DHT22;11833;52.554;13.554;2023-01-23T11:23:17;2.80;99.90
23323;DHT22;11833;52.554;13.554;2023-01-23T11:25:48;2.90;99.90
23323;DHT22;11833;52.554;13.554;2023-01-23T11:31:11;3.60;99.90
23323;DHT22;11833;52.554;13.554;2023-01-23T11:33:49;3.50;99.90
23323;DHT22;11833;52.554;13.554;2023-01-23T11:42:24;3.20;99.90
23323;DHT22;11833;52.554;13.554;2023-01-23T11:44:51;3.20;99.90
23323;DHT22;11833;52.554;13.554;2023-01-23T11:53:22;3.20;99.90
23323;DHT22;11833;52.554;13.554;2023-01-23T11:56:29;3.30;99.90
23323;DHT22;11833;52.554;13.554;2023-01-23T12:02:35;3.10;99.90
23323;DHT22;11833;52.554;13.554;2023-01-23T12:12:30;3.60;99.90
23323;DHT22;11833;52.554;13.554;2023-01-23T12:21:19;3.30;99.90
23323;DHT22;11833;52.554;13.554;2023-01-23T12:30:06;3.40;99.90
23323;DHT22;11833;52.554;13.554;2023-01-23T12:37:56;3.30;99.90
23323;DHT22;11833;52.554;13.554;2023-01-23T12:41:12;3.80;99.90
23323;DHT22;11833;52.554;13.554;2023-01-23T12:46:33;3.60;99.90
23323;DHT22;11833;52.554;13.554;2023-01-23T12:49:18;3.50;99.90
23323;DHT22;11833;52.554;13.554;2023-01-23T12:52:16;3.40;99.90
23323;DHT22;11833;52.554;13.554;2023-01-23T12:57:43;3.60;99.90
23323;DHT22;11833;52.554;13.554;2023-01-23T13:06:43;3.90;99.90
23323;DHT22;11833;52.554;13.554;2023-01-23T13:09:39;3.80;99.90
23323;DHT22;11833;52.554;13.554;2023-01-23T13:12:30;3.60;99.90
23323;DHT22;11833;52.554;13.554;2023-01-23T13:17:46;3.30;99.90
23323;DHT22;11833;52.554;13.554;2023-01-23T13:23:29;3.50;99.90
23323;DHT22;11833;52.554;13.554;2023-01-23T13:28:42;3.40;99.90
23323;DHT22;11833;52.554;13.554;2023-01-23T13:33:59;3.50;99.90
23323;DHT22;11833;52.554;13.554;2023-01-23T13:41:39;3.60;99.90
23323;DHT22;11833;52.554;13.554;2023-01-23T13:50:04;3.20;99.90
23323;DHT22;11833;52.554;13.554;2023-01-23T13:52:51;3.30;99.90
23323;DHT22;11833;52.554;13.554;2023-01-23T13:55:41;3.30;99.90
23323;DHT22;11833;52.554;13.554;2023-01-23T13:58:28;3.40;99.90
23323;DHT22;11833;52.554;13.554;2023-01-23T14:01:07;3.10;99.90
23323;DHT22;11833;52.554;13.554;2023-01-23T14:03:58;3.00;99.90
23323;DHT22;11833;52.554;13.554;2023-01-23T14:06:44;3.20;99.90
23323;DHT22;11833;52.554;13.554;2023-01-23T14:09:30;3.30;99.90
23323;DHT22;11833;52.554;13.554;2023-01-23T14:12:02;3.40;99.90
23323;DHT22;11833;52.554;13.554;2023-01-23T14:14:37;3.20;99.90
23323;DHT22;11833;52.554;13.554;2023-01-23T14:17:23;3.20;99.90
23323;DHT22;11833;52.554;13.554;2023-01-23T14:20:12;3.00;99.90
23323;DHT22;11833;52.554;13.554;2023-01-23T14:22:42;2.90;99.90
23323;DHT22;11833;52.554;13.554;2023-01-23T14:25:18;2.90;99.90
23323;DHT22;11833;52.554;13.554;2023-01-23T14:27:44;3.10;99.90
23323;DHT22;11833;52.554;13.554;2023-01-23T14:30:18;3.20;99.90
23323;DHT22;11833;52.554;13.554;2023-01-23T14:32:45;3.10;99.90
23323;DHT22;11833;52.554;13.554;2023-01-23T14:37:53;3.10;99.90
23323;DHT22;11833;52.554;13.554;2023-01-23T14:40:22;3.10;99.90
23323;DHT22;11833;52.554;13.554;2023-01-23T14:45:28;3.00;99.90
23323;DHT22;11833;52.554;13.554;2023-01-23T14:47:55;3.10;99.90
23323;DHT22;11833;52.554;13.554;2023-01-23T14:50:24;3.10;99.90
23323;DHT22;11833;52.554;13.554;2023-01-23T14:53:03;3.00;99.90
23323;DHT22;11833;52.554;13.554;2023-01-23T14:55:31;2.80;99.90
23323;DHT22;11833;52.554;13.554;2023-01-23T14:58:00;2.70;99.90
23323;DHT22;11833;52.554;13.554;2023-01-23T15:00:28;2.70;99.90
23323;DHT22;11833;52.554;13.554;2023-01-23T15:02:54;2.70;99.90
23323;DHT22;11833;52.554;13.554;2023-01-23T15:05:23;2.60;99.90
23323;DHT22;11833;52.554;13.554;2023-01-23T15:10:21;2.70;99.90
23323;DHT22;11833;52.554;13.554;2023-01-23T15:15:26;2.80;99.90
23323;DHT22;11833;52.554;13.554;2023-01-23T15:17:53;2.70;99.90
23323;DHT22;11833;52.554;13.554;2023-01-23T15:20:37;2.70;99.90
23323;DHT22;11833;52.554;13.554;2023-01-23T15:23:28;2.70;99.90
23323;DHT22;11833;52.554;13.554;2023-01-23T15:28:54;2.60;99.90
23323;DHT22;11833;52.554;13.554;2023-01-23T15:39:49;2.70;99.90
23323;DHT22;11833;52.554;13.554;2023-01-23T15:42:31;2.60;99.90
23323;DHT22;11833;52.554;13.554;2023-01-23T15:44:58;2.50;99.90
23323;DHT22;11833;52.554;13.554;2023-01-23T15:47:27;2.50;99.90
23323;DHT22;11833;52.554;13.554;2023-01-23T15:49:56;2.50;99.90
23323;DHT22;11833;52.554;13.554;2023-01-23T15:52:49;2.50;99.90
23323;DHT22;11833;52.554;13.554;2023-01-23T15:55:17;2.40;99.90
23323;DHT22;11833;52.554;13.554;2023-01-23T15:57:44;2.30;99.90
23323;DHT22;11833;52.554;13.554;2023-01-23T16:00:24;2.40;99.90
23323;DHT22;11833;52.554;13.554;2023-01-23T16:02:52;2.30;99.90
23323;DHT22;11833;52.554;13.554;2023-01-23T16:05:20;2.50;99.90
23323;DHT22;11833;52.554;13.554;2023-01-23T16:07:47;2.60;99.90
23323;DHT22;11833;52.554;13.554;2023-01-23T16:10:40;2.50;99.90
23323;DHT22;11833;52.554;13.554;2023-01-23T16:13:05;2.40;99.90
23323;DHT22;11833;52.554;13.554;2023-01-23T16:15:33;2.40;99.90
23323;DHT22;11833;52.554;13.554;2023-01-23T16:18:00;2.30;99.90
23323;DHT22;11833;52.554;13.554;2023-01-23T16:20:34;2.30;99.90
23323;DHT22;11833;52.554;13.554;2023-01-23T16:23:12;2.40;99.90
23323;DHT22;11833;52.554;13.554;2023-01-23T16:25:42;2.30;99.90
23323;DHT22;11833;52.554;13.554;2023-01-23T16:30:47;2.40;99.90
23323;DHT22;11833;52.554;13.554;2023-01-23T16:33:14;2.40;99.90
23323;DHT22;11833;52.554;13.554;2023-01-23T16:35:40;2.30;99.90
23323;DHT22;11833;52.554;13.554;2023-01-23T16:38:08;2.30;99.90
23323;DHT22;11833;52.554;13.554;2023-01-23T16:40:43;2.30;99.90
23323;DHT22;11833;52.554;13.554;2023-01-23T16:43:08;2.30;99.90
23323;DHT22;11833;52.554;13.554;2023-01-23T16:45:34;2.30;99.90
23323;DHT22;11833;52.554;13.554;2023-01-23T16:48:00;2.20;99.90
23323;DHT22;11833;52.554;13.554;2023-01-23T16:50:35;2.30;99.90
23323;DHT22;11833;52.554;13.554;2023-01-23T16:53:23;2.20;99.90
23323;DHT22;11833;52.554;13.554;2023-01-23T16:55:50;2.20;99.90
23323;DHT22;11833;52.554;13.554;2023-01-23T16:58:20;2.20;99.90
23323;DHT22;11833;52.554;13.554;2023-01-23T17:00:48;2.20;99.90
23323;DHT22;11833;52.554;13.554;2023-01-23T17:03:22;2.20;99.90
23323;DHT22;11833;52.554;13.554;2023-01-23T17:05:50;2.20;99.90
23323;DHT22;11833;52.554;13.554;2023-01-23T17:08:20;2.10;99.90
23323;DHT22;11833;52.554;13.554;2023-01-23T17:10:54;2.10;99.90
23323;DHT22;11833;52.554;13.554;2023-01-23T17:13:22;2.30;99.90
23323;DHT22;11833;52.554;13.554;2023-01-23T17:15:50;2.10;99.90
23323;DHT22;11833;52.554;13.554;2023-01-23T17:18:22;2.10;99.90
23323;DHT22;11833;52.554;13.554;2023-01-23T17:20:50;2.10;99.90
23323;DHT22;11833;52.554;13.554;2023-01-23T17:23:18;2.10;99.90
23323;DHT22;11833;52.554;13.554;2023-01-23T17:25:44;2.10;99.90
23323;DHT22;11833;52.554;13.554;2023-01-23T17:28:13;2.10;99.90
23323;DHT22;11833;52.554;13.554;2023-01-23T17:30:40;2.20;99.90
23323;DHT22;11833;52.554;13.554;2023-01-23T17:33:20;2.30;99.90
23323;DHT22;11833;52.554;13.554;2023-01-23T17:35:47;2.30;99.90
23323;DHT22;11833;52.554;13.554;2023-01-23T17:38:21;2.20;99.90
23323;DHT22;11833;52.554;13.554;2023-01-23T17:40:49;2.10;99.90
23323;DHT22;11833;52.554;13.554;2023-01-23T17:43:15;2.20;99.90
23323;DHT22;11833;52.554;13.554;2023-01-23T17:45:44;2.10;99.90
23323;DHT22;11833;52.554;13.554;2023-01-23T17:48:25;2.10;99.90
23323;DHT22;11833;52.554;13.554;2023-01-23T17:50:52;2.10;99.90
23323;DHT22;11833;52.554;13.554;2023-01-23T17:53:18;2.00;99.90
23323;DHT22;11833;52.554;13.554;2023-01-23T17:55:44;2.00;99.90
23323;DHT22;11833;52.554;13.554;2023-01-23T17:58:14;2.10;99.90
23323;DHT22;11833;52.554;13.554;2023-01-23T18:00:41;2.00;99.90
23323;DHT22;11833;52.554;13.554;2023-01-23T18:03:11;2.00;99.90
23323;DHT22;11833;52.554;13.554;2023-01-23T18:05:37;2.00;99.90
23323;DHT22;11833;52.554;13.554;2023-01-23T18:08:04;2.10;99.90
23323;DHT22;11833;52.554;13.554;2023-01-23T18:10:32;2.10;99.90
23323;DHT22;11833;52.554;13.554;2023-01-23T18:13:15;2.20;99.90
23323;DHT22;11833;52.554;13.554;2023-01-23T18:18:39;2.30;99.90
23323;DHT22;11833;52.554;13.554;2023-01-23T18:21:12;2.20;99.90
23323;DHT22;11833;52.554;13.554;2023-01-23T18:23:39;2.20;99.90
23323;DHT22;11833;52.554;13.554;2023-01-23T18:26:16;2.20;99.90
23323;DHT22;11833;52.554;13.554;2023-01-23T18:34:47;2.20;99.90
23323;DHT22;11833;52.554;13.554;2023-01-23T18:37:28;2.10;99.90
23323;DHT22;11833;52.554;13.554;2023-01-23T18:40:14;2.30;99.90
23323;DHT22;11833;52.554;13.554;2023-01-23T18:43:34;2.10;99.90
23323;DHT22;11833;52.554;13.554;2023-01-23T18:46:03;2.00;99.90
23323;DHT22;11833;52.554;13.554;2023-01-23T18:48:30;2.00;99.90
23323;DHT22;11833;52.554;13.554;2023-01-23T18:54:03;2.00;99.90
23323;DHT22;11833;52.554;13.554;2023-01-23T18:57:06;2.00;99.90
23323;DHT22;11833;52.554;13.554;2023-01-23T19:00:05;2.10;99.90
23323;DHT22;11833;52.554;13.554;2023-01-23T19:02:44;2.00;99.90
23323;DHT22;11833;52.554;13.554;2023-01-23T19:05:31;2.00;99.90
23323;DHT22;11833;52.554;13.554;2023-01-23T19:07:58;1.90;99.90
23323;DHT22;11833;52.554;13.554;2023-01-23T19:10:30;2.00;99.90
23323;DHT22;11833;52.554;13.554;2023-01-23T19:18:44;2.10;99.90